Observation data for Fluvanna on 08/14/2020      Previous  Date  Next       Current Mesonet Observations  Soil Data  Daily Summary Page  Observations in Plain Language
KFVS 140500Z 19009KT 30/10 A2995 RMK A01 T03020096  RH  029%=      5-min Rain = 0
KFVS 140505Z 20009KT 30/10 A2995 RMK A01 T03000096  RH  029%=      5-min Rain = 0
KFVS 140510Z 19008KT 30/10 A2996 RMK A01 T02980096  RH  029%=      5-min Rain = 0
KFVS 140515Z 19009KT 29/10 A2996 RMK A01 T02940096  RH  030%=      5-min Rain = 0
KFVS 140520Z 19009KT 29/10 A2995 RMK A01 T02930096  RH  030%=      5-min Rain = 0
KFVS 140525Z 19009KT 29/10 A2995 RMK A01 T02940097  RH  030%=      5-min Rain = 0
KFVS 140530Z 19009KT 29/10 A2995 RMK A01 T02940097  RH  030%=      5-min Rain = 0
KFVS 140535Z 20010KT 30/10 A2996 RMK A01 T02960098  RH  030%=      5-min Rain = 0
KFVS 140540Z 20010KT 30/10 A2996 RMK A01 T02960099  RH  030%=      5-min Rain = 0
KFVS 140545Z 20010KT 30/10 A2996 RMK A01 T02970100  RH  030%=      5-min Rain = 0
KFVS 140550Z 20010KT 30/10 A2996 RMK A01 T02960101  RH  031%=      5-min Rain = 0
KFVS 140555Z 20009KT 30/10 A2996 RMK A01 T02950102  RH  031%=      5-min Rain = 0
KFVS 140600Z 20009KT 29/10 A2996 RMK A01 T02940103  RH  032%=      5-min Rain = 0
KFVS 140605Z 19009KT 29/11 A2996 RMK A01 T02940105  RH  032%=      5-min Rain = 0
KFVS 140610Z 19009KT 29/11 A2996 RMK A01 T02930105  RH  032%=      5-min Rain = 0
KFVS 140615Z 20009KT 29/11 A2996 RMK A01 T02920107  RH  033%=      5-min Rain = 0
KFVS 140620Z 19009KT 29/11 A2997 RMK A01 T02910108  RH  033%=      5-min Rain = 0
KFVS 140625Z 19009KT 29/11 A2996 RMK A01 T02910109  RH  033%=      5-min Rain = 0
KFVS 140630Z 19009KT 29/11 A2997 RMK A01 T02920111  RH  034%=      5-min Rain = 0
KFVS 140635Z 19009KT 29/11 A2997 RMK A01 T02910112  RH  034%=      5-min Rain = 0
KFVS 140640Z 20009KT 29/11 A2997 RMK A01 T02910113  RH  035%=      5-min Rain = 0
KFVS 140645Z 20010KT 29/12 A2997 RMK A01 T02910115  RH  035%=      5-min Rain = 0
KFVS 140650Z 20010KT 29/12 A2997 RMK A01 T02910116  RH  035%=      5-min Rain = 0
KFVS 140655Z 20009KT 29/12 A2997 RMK A01 T02900116  RH  035%=      5-min Rain = 0
KFVS 140700Z 20010G15KT 29/12 A2997 RMK A01 T02900117  RH  036%=      5-min Rain = 0
KFVS 140705Z 21010KT 29/12 A2997 RMK A01 T02900118  RH  036%=      5-min Rain = 0
KFVS 140710Z 20010KT 29/12 A2996 RMK A01 T02880119  RH  036%=      5-min Rain = 0
KFVS 140715Z 21009KT 29/12 A2996 RMK A01 T02890120  RH  036%=      5-min Rain = 0
KFVS 140720Z 21009KT 29/12 A2996 RMK A01 T02880120  RH  037%=      5-min Rain = 0
KFVS 140725Z 20009KT 29/12 A2997 RMK A01 T02860120  RH  037%=      5-min Rain = 0
KFVS 140730Z 20009KT 29/12 A2996 RMK A01 T02860120  RH  037%=      5-min Rain = 0
KFVS 140735Z 20009KT 29/12 A2997 RMK A01 T02850120  RH  037%=      5-min Rain = 0
KFVS 140740Z 20009KT 29/12 A2997 RMK A01 T02850120  RH  037%=      5-min Rain = 0
KFVS 140745Z 20009KT 28/12 A2997 RMK A01 T02840120  RH  038%=      5-min Rain = 0
KFVS 140750Z 20009KT 28/12 A2997 RMK A01 T02830120  RH  038%=      5-min Rain = 0
KFVS 140755Z 20010KT 28/12 A2997 RMK A01 T02830121  RH  038%=      5-min Rain = 0
KFVS 140800Z 20010KT 28/12 A2997 RMK A01 T02820121  RH  038%=      5-min Rain = 0
KFVS 140805Z 20010KT 28/12 A2997 RMK A01 T02820121  RH  038%=      5-min Rain = 0
KFVS 140810Z 20009KT 28/12 A2997 RMK A01 T02810121  RH  039%=      5-min Rain = 0
KFVS 140815Z 20010KT 28/12 A2997 RMK A01 T02800122  RH  039%=      5-min Rain = 0
KFVS 140820Z 20010KT 28/12 A2997 RMK A01 T02820122  RH  039%=      5-min Rain = 0
KFVS 140825Z 20010KT 28/12 A2997 RMK A01 T02820122  RH  039%=      5-min Rain = 0
KFVS 140830Z 20010KT 28/12 A2997 RMK A01 T02810122  RH  039%=      5-min Rain = 0
KFVS 140835Z 20009KT 28/12 A2997 RMK A01 T02790122  RH  039%=      5-min Rain = 0
KFVS 140840Z 20010KT 28/12 A2997 RMK A01 T02770123  RH  040%=      5-min Rain = 0
KFVS 140845Z 21010KT 28/12 A2997 RMK A01 T02790123  RH  040%=      5-min Rain = 0
KFVS 140850Z 20009KT 28/12 A2997 RMK A01 T02780123  RH  040%=      5-min Rain = 0
KFVS 140855Z 20009G14KT 28/12 A2997 RMK A01 T02760123  RH  040%=      5-min Rain = 0
KFVS 140900Z 20009KT 27/12 A2997 RMK A01 T02740123  RH  041%=      5-min Rain = 0
KFVS 140905Z 20010KT 27/12 A2997 RMK A01 T02730123  RH  041%=      5-min Rain = 0
KFVS 140910Z 21010KT 28/12 A2997 RMK A01 T02750124  RH  041%=      5-min Rain = 0
KFVS 140915Z 21010KT 28/12 A2997 RMK A01 T02750123  RH  041%=      5-min Rain = 0
KFVS 140920Z 21010KT 27/12 A2997 RMK A01 T02740124  RH  041%=      5-min Rain = 0
KFVS 140925Z 21009KT 27/12 A2997 RMK A01 T02710123  RH  042%=      5-min Rain = 0
KFVS 140930Z 20009KT 27/12 A2996 RMK A01 T02680123  RH  042%=      5-min Rain = 0
KFVS 140935Z 20010KT 27/12 A2996 RMK A01 T02670123  RH  042%=      5-min Rain = 0
KFVS 140940Z 20011KT 27/12 A2996 RMK A01 T02710124  RH  042%=      5-min Rain = 0
KFVS 140945Z 20010KT 27/12 A2996 RMK A01 T02720124  RH  041%=      5-min Rain = 0
KFVS 140950Z 20011KT 27/12 A2996 RMK A01 T02710124  RH  042%=      5-min Rain = 0
KFVS 140955Z 20011KT 27/12 A2996 RMK A01 T02720124  RH  041%=      5-min Rain = 0
KFVS 141000Z 20010KT 27/12 A2996 RMK A01 T02720124  RH  041%=      5-min Rain = 0
KFVS 141005Z 20011KT 27/12 A2996 RMK A01 T02710124  RH  042%=      5-min Rain = 0
KFVS 141010Z 20011G16KT 27/12 A2996 RMK A01 T02690124  RH  042%=      5-min Rain = 0
KFVS 141015Z 20011KT 27/12 A2996 RMK A01 T02680124  RH  042%=      5-min Rain = 0
KFVS 141020Z 20011KT 27/12 A2995 RMK A01 T02670124  RH  043%=      5-min Rain = 0
KFVS 141025Z 20011KT 27/12 A2995 RMK A01 T02660124  RH  043%=      5-min Rain = 0
KFVS 141030Z 20011KT 27/12 A2995 RMK A01 T02650124  RH  043%=      5-min Rain = 0
KFVS 141035Z 20011KT 27/12 A2995 RMK A01 T02650124  RH  043%=      5-min Rain = 0
KFVS 141040Z 20011KT 27/12 A2996 RMK A01 T02650124  RH  043%=      5-min Rain = 0
KFVS 141045Z 20010KT 27/12 A2996 RMK A01 T02650124  RH  043%=      5-min Rain = 0
KFVS 141050Z 20010KT 27/12 A2996 RMK A01 T02650124  RH  043%=      5-min Rain = 0
KFVS 141055Z 21010KT 27/12 A2996 RMK A01 T02650124  RH  043%=      5-min Rain = 0
KFVS 141100Z 21010KT 26/12 A2996 RMK A01 T02630124  RH  044%=      5-min Rain = 0
KFVS 141105Z 21008KT 26/12 A2996 RMK A01 T02610124  RH  044%=      5-min Rain = 0
KFVS 141110Z 21009KT 26/12 A2996 RMK A01 T02590124  RH  045%=      5-min Rain = 0
KFVS 141115Z 21009KT 26/12 A2997 RMK A01 T02580124  RH  045%=      5-min Rain = 0
KFVS 141120Z 21010KT 26/12 A2997 RMK A01 T02550123  RH  046%=      5-min Rain = 0
KFVS 141125Z 21010KT 26/12 A2997 RMK A01 T02550123  RH  046%=      5-min Rain = 0
KFVS 141130Z 22009KT 26/12 A2997 RMK A01 T02560123  RH  045%=      5-min Rain = 0
KFVS 141135Z 22009KT 25/12 A2997 RMK A01 T02540123  RH  046%=      5-min Rain = 0
KFVS 141140Z 22008KT 25/12 A2997 RMK A01 T02520123  RH  046%=      5-min Rain = 0
KFVS 141145Z 22008KT 25/12 A2997 RMK A01 T02510122  RH  046%=      5-min Rain = 0
KFVS 141150Z 23008KT 25/12 A2997 RMK A01 T02490122  RH  047%=      5-min Rain = 0
KFVS 141155Z 22007KT 25/12 A2998 RMK A01 T02460122  RH  048%=      5-min Rain = 0
KFVS 141200Z 22008KT 24/12 A2998 RMK A01 T02430122  RH  048%=      5-min Rain = 0
KFVS 141205Z 23009KT 24/12 A2998 RMK A01 T02440121  RH  048%=      5-min Rain = 0
KFVS 141210Z 22008KT 25/12 A2998 RMK A01 T02460121  RH  047%=      5-min Rain = 0
KFVS 141215Z 22007KT 24/12 A2998 RMK A01 T02440121  RH  048%=      5-min Rain = 0
KFVS 141220Z 22009KT 25/12 A2998 RMK A01 T02470121  RH  047%=      5-min Rain = 0
KFVS 141225Z 21009KT 25/12 A2998 RMK A01 T02490121  RH  047%=      5-min Rain = 0
KFVS 141230Z 22009KT 25/12 A2998 RMK A01 T02530122  RH  046%=      5-min Rain = 0
KFVS 141235Z 21009KT 25/12 A2999 RMK A01 T02530122  RH  046%=      5-min Rain = 0
KFVS 141240Z 21009KT 25/12 A2999 RMK A01 T02530122  RH  046%=      5-min Rain = 0
KFVS 141245Z 21009KT 26/12 A2999 RMK A01 T02560123  RH  045%=      5-min Rain = 0
KFVS 141250Z 21009KT 26/12 A2999 RMK A01 T02560124  RH  046%=      5-min Rain = 0
KFVS 141255Z 21009KT 26/13 A2999 RMK A01 T02580125  RH  045%=      5-min Rain = 0
KFVS 141300Z 21010KT 26/13 A2999 RMK A01 T02620126  RH  044%=      5-min Rain = 0
KFVS 141305Z 21010KT 26/13 A2999 RMK A01 T02640126  RH  044%=      5-min Rain = 0
KFVS 141310Z 22010KT 27/13 A2999 RMK A01 T02650126  RH  044%=      5-min Rain = 0
KFVS 141315Z 22010KT 27/13 A30 RMK A01 T02660126  RH  044%=      5-min Rain = 0
KFVS 141320Z 22010KT 27/13 A30 RMK A01 T02680127  RH  043%=      5-min Rain = 0
KFVS 141325Z 22009KT 27/13 A30 RMK A01 T02690127  RH  043%=      5-min Rain = 0
KFVS 141330Z 22010KT 27/13 A30 RMK A01 T02700126  RH  043%=      5-min Rain = 0
KFVS 141335Z 22009KT 27/13 A30 RMK A01 T02720128  RH  043%=      5-min Rain = 0
KFVS 141340Z 22010KT 27/13 A30 RMK A01 T02730128  RH  042%=      5-min Rain = 0
KFVS 141345Z 22011KT 28/13 A30 RMK A01 T02750128  RH  042%=      5-min Rain = 0
KFVS 141350Z 22011KT 28/13 A30 RMK A01 T02760128  RH  042%=      5-min Rain = 0
KFVS 141355Z 22011KT 28/13 A3001 RMK A01 T02770129  RH  041%=      5-min Rain = 0
KFVS 141400Z 22010KT 28/13 A3001 RMK A01 T02800131  RH  042%=      5-min Rain = 0
KFVS 141405Z 22010G15KT 28/13 A3001 RMK A01 T02830133  RH  041%=      5-min Rain = 0
KFVS 141410Z 22013KT 28/13 A3001 RMK A01 T02830131  RH  041%=      5-min Rain = 0
KFVS 141415Z 22011KT 28/13 A3001 RMK A01 T02840133  RH  041%=      5-min Rain = 0
KFVS 141420Z 21014KT 29/13 A3001 RMK A01 T02870133  RH  040%=      5-min Rain = 0
KFVS 141425Z 22015KT 29/13 A30 RMK A01 T02880133  RH  040%=      5-min Rain = 0
KFVS 141430Z 22014G20KT 29/14 A30 RMK A01 T02900135  RH  040%=      5-min Rain = 0
KFVS 141435Z 23017G23KT 29/13 A30 RMK A01 T02890133  RH  040%=      5-min Rain = 0
KFVS 141440Z 22015G22KT 29/14 A30 RMK A01 T02940135  RH  039%=      5-min Rain = 0
KFVS 141445Z 22015G21KT 30/14 A30 RMK A01 T02970136  RH  039%=      5-min Rain = 0
KFVS 141450Z 22016G21KT 30/14 A30 RMK A01 T02980135  RH  038%=      5-min Rain = 0
KFVS 141455Z 22015KT 30/14 A30 RMK A01 T02990135  RH  038%=      5-min Rain = 0
KFVS 141500Z 21015G21KT 30/14 A30 RMK A01 T03000137  RH  038%=      5-min Rain = 0
KFVS 141505Z 22015KT 30/14 A30 RMK A01 T03020137  RH  038%=      5-min Rain = 0
KFVS 141510Z 21014KT 30/14 A30 RMK A01 T03040138  RH  038%=      5-min Rain = 0
KFVS 141515Z 21015KT 31/14 A30 RMK A01 T03050137  RH  037%=      5-min Rain = 0
KFVS 141520Z 21014G19KT 31/14 A30 RMK A01 T03080139  RH  037%=      5-min Rain = 0
KFVS 141525Z 21014G20KT 31/14 A30 RMK A01 T03090139  RH  037%=      5-min Rain = 0
KFVS 141530Z 21012G17KT 31/14 A30 RMK A01 T03130141  RH  037%=      5-min Rain = 0
KFVS 141535Z 21012G18KT 32/14 A30 RMK A01 T03170141  RH  036%=      5-min Rain = 0
KFVS 141540Z 20012G17KT 32/14 A30 RMK A01 T03210142  RH  035%=      5-min Rain = 0
KFVS 141545Z 22013KT 32/14 A30 RMK A01 T03210141  RH  035%=      5-min Rain = 0
KFVS 141550Z 21013KT 32/14 A30 RMK A01 T03210140  RH  035%=      5-min Rain = 0
KFVS 141555Z 20013KT 33/14 A30 RMK A01 T03260140  RH  034%=      5-min Rain = 0
KFVS 141600Z 20014KT 33/14 A30 RMK A01 T03260139  RH  034%=      5-min Rain = 0
KFVS 141605Z 21010KT 33/14 A30 RMK A01 T03300142  RH  034%=      5-min Rain = 0
KFVS 141610Z 22011KT 33/14 A30 RMK A01 T03330140  RH  033%=      5-min Rain = 0
KFVS 141615Z 21012KT 33/14 A30 RMK A01 T03330140  RH  032%=      5-min Rain = 0
KFVS 141620Z 22012G17KT 34/14 A30 RMK A01 T03370141  RH  032%=      5-min Rain = 0
KFVS 141625Z 21012G17KT 34/14 A30 RMK A01 T03360139  RH  032%=      5-min Rain = 0
KFVS 141630Z 22012G17KT 34/14 A30 RMK A01 T03390138  RH  031%=      5-min Rain = 0
KFVS 141635Z 20010KT 34/14 A30 RMK A01 T03430140  RH  031%=      5-min Rain = 0
KFVS 141640Z 21009G14KT 35/14 A30 RMK A01 T03460140  RH  030%=      5-min Rain = 0
KFVS 141645Z 23011KT 35/14 A30 RMK A01 T03490141  RH  030%=      5-min Rain = 0
KFVS 141650Z 21011G18KT 35/14 A30 RMK A01 T03510142  RH  030%=      5-min Rain = 0
KFVS 141655Z 22013KT 35/14 A30 RMK A01 T03510136  RH  029%=      5-min Rain = 0
KFVS 141700Z 21011G16KT 35/14 A30 RMK A01 T03530138  RH  029%=      5-min Rain = 0
KFVS 141705Z 22012KT 36/14 A30 RMK A01 T03560137  RH  028%=      5-min Rain = 0
KFVS 141710Z 21010G15KT 35/14 A30 RMK A01 T03530136  RH  028%=      5-min Rain = 0
KFVS 141715Z 21012KT 35/13 A30 RMK A01 T03500133  RH  028%=      5-min Rain = 0
KFVS 141720Z 20011G16KT 35/13 A2999 RMK A01 T03510132  RH  028%=      5-min Rain = 0
KFVS 141725Z 21011KT 36/14 A2999 RMK A01 T03590136  RH  027%=      5-min Rain = 0
KFVS 141730Z 21013KT 36/13 A2999 RMK A01 T03600133  RH  027%=      5-min Rain = 0
KFVS 141735Z 20011G17KT 36/13 A2999 RMK A01 T03630132  RH  026%=      5-min Rain = 0
KFVS 141740Z 19011G16KT 37/13 A2999 RMK A01 T03650131  RH  026%=      5-min Rain = 0
KFVS 141745Z 23010G15KT 37/13 A2999 RMK A01 T03700127  RH  024%=      5-min Rain = 0
KFVS 141750Z 23010G15KT 37/13 A2999 RMK A01 T03700125  RH  024%=      5-min Rain = 0
KFVS 141755Z 21010KT 37/13 A2999 RMK A01 T03740128  RH  024%=      5-min Rain = 0
KFVS 141800Z 22010G16KT 38/13 A2998 RMK A01 T03800126  RH  023%=      5-min Rain = 0
KFVS 141805Z 24010KT 38/12 A2998 RMK A01 T03810117  RH  021%=      5-min Rain = 0
KFVS 141810Z 23010G16KT 38/12 A2998 RMK A01 T03820118  RH  021%=      5-min Rain = 0
KFVS 141815Z 22010G15KT 38/11 A2998 RMK A01 T03830114  RH  021%=      5-min Rain = 0
KFVS 141820Z 23011G20KT 38/11 A2998 RMK A01 T03840113  RH  020%=      5-min Rain = 0
KFVS 141825Z 23008G15KT 39/11 A2998 RMK A01 T03850113  RH  020%=      5-min Rain = 0
KFVS 141830Z 21010G15KT 39/11 A2997 RMK A01 T03870112  RH  020%=      5-min Rain = 0
KFVS 141835Z 22010G15KT 39/12 A2997 RMK A01 T03890117  RH  020%=      5-min Rain = 0
KFVS 141840Z 21010G16KT 39/11 A2997 RMK A01 T03890114  RH  020%=      5-min Rain = 0
KFVS 141845Z 23010G15KT 39/12 A2997 RMK A01 T03910117  RH  020%=      5-min Rain = 0
KFVS 141850Z 19009G14KT 39/12 A2997 RMK A01 T03940116  RH  020%=      5-min Rain = 0
KFVS 141855Z 23011G16KT 39/11 A2996 RMK A01 T03940112  RH  019%=      5-min Rain = 0
KFVS 141900Z 22006KT 40/12 A2996 RMK A01 T03990115  RH  019%=      5-min Rain = 0
KFVS 141905Z 24006G11KT 40/11 A2996 RMK A01 T03980109  RH  018%=      5-min Rain = 0
KFVS 141910Z 22004G9KT 40/10 A2996 RMK A01 T03960104  RH  018%=      5-min Rain = 0
KFVS 141915Z 20008G15KT 40/11 A2996 RMK A01 T04010110  RH  018%=      5-min Rain = 0
KFVS 141920Z 21008KT 40/11 A2995 RMK A01 T03960110  RH  019%=      5-min Rain = 0
KFVS 141925Z 24008G16KT 39/10 A2995 RMK A01 T03930101  RH  018%=      5-min Rain = 0
KFVS 141930Z 27006G12KT 39/09 A2995 RMK A01 T03900089  RH  017%=      5-min Rain = 0
KFVS 141935Z 26002G7KT 39/10 A2995 RMK A01 T03880095  RH  018%=      5-min Rain = 0
KFVS 141940Z 22004G9KT 39/10 A2994 RMK A01 T03890097  RH  018%=      5-min Rain = 0
KFVS 141945Z 21005G10KT 39/10 A2994 RMK A01 T03870099  RH  018%=      5-min Rain = 0
KFVS 141950Z 23004KT 39/11 A2994 RMK A01 T03930109  RH  019%=      5-min Rain = 0
KFVS 141955Z 26002KT 41/10 A2993 RMK A01 T04050101  RH  017%=      5-min Rain = 0
KFVS 142000Z 24006G14KT 41/11 A2993 RMK A01 T04080107  RH  017%=      5-min Rain = 0
KFVS 142005Z 21006G11KT 41/10 A2993 RMK A01 T04100104  RH  017%=      5-min Rain = 0
KFVS 142010Z 22005G10KT 41/10 A2993 RMK A01 T04100100  RH  016%=      5-min Rain = 0
KFVS 142015Z 31007G15KT 41/11 A2992 RMK A01 T04110105  RH  017%=      5-min Rain = 0
KFVS 142020Z 27004G12KT 41/10 A2992 RMK A01 T04120095  RH  016%=      5-min Rain = 0
KFVS 142025Z 28006KT 41/10 A2992 RMK A01 T04070104  RH  017%=      5-min Rain = 0
KFVS 142030Z 22007G16KT 40/09 A2992 RMK A01 T04000094  RH  017%=      5-min Rain = 0
KFVS 142035Z 22007G12KT 40/10 A2991 RMK A01 T03950095  RH  017%=      5-min Rain = 0
KFVS 142040Z 22006KT 39/10 A2991 RMK A01 T03930099  RH  018%=      5-min Rain = 0
KFVS 142045Z 28004G9KT 39/11 A2991 RMK A01 T03920110  RH  019%=      5-min Rain = 0
KFVS 142050Z 31005KT 38/16 A2991 RMK A01 T03750161  RH  030%=      5-min Rain = 0
KFVS 142055Z 32005KT 36/18 A2991 RMK A01 T03590183  RH  038%=      5-min Rain = 0
KFVS 142100Z 35006KT 35/17 A2991 RMK A01 T03510174  RH  037%=      5-min Rain = 0.03
KFVS 142105Z 10004KT 34/15 A2991 RMK A01 T03410154  RH  034%=      5-min Rain = 0.03
KFVS 142110Z 23012G30KT 34/16 A2992 RMK A01 T03360161  RH  037%=      5-min Rain = 0.01
KFVS 142115Z 34008G17KT 34/12 A2992 RMK A01 T03430124  RH  028%=      5-min Rain = 0
KFVS 142120Z 01010KT 33/15 A2991 RMK A01 T03340147  RH  034%=      5-min Rain = 0
KFVS 142125Z 35005G12KT 35/12 A299 RMK A01 T03470124  RH  027%=      5-min Rain = 0
KFVS 142130Z 35007KT 36/13 A299 RMK A01 T03560127  RH  026%=      5-min Rain = 0
KFVS 142135Z 35005KT 35/15 A299 RMK A01 T03510146  RH  031%=      5-min Rain = 0
KFVS 142140Z 01009KT 35/14 A299 RMK A01 T03540139  RH  029%=      5-min Rain = 0
KFVS 142145Z 01007KT 36/15 A299 RMK A01 T03550146  RH  030%=      5-min Rain = 0
KFVS 142150Z 01004KT 36/13 A299 RMK A01 T03580133  RH  027%=      5-min Rain = 0
KFVS 142155Z 25005G11KT 36/14 A299 RMK A01 T03620140  RH  028%=      5-min Rain = 0
KFVS 142200Z 22006G12KT 36/14 A299 RMK A01 T03640138  RH  027%=      5-min Rain = 0
KFVS 142205Z 21012G17KT 36/13 A299 RMK A01 T03580133  RH  027%=      5-min Rain = 0
KFVS 142210Z 20010KT 36/13 A299 RMK A01 T03570130  RH  027%=      5-min Rain = 0
KFVS 142215Z 19007KT 36/14 A2989 RMK A01 T03560137  RH  028%=      5-min Rain = 0
KFVS 142220Z 21008G14KT 36/13 A2989 RMK A01 T03580127  RH  026%=      5-min Rain = 0
KFVS 142225Z 21011KT 36/12 A2989 RMK A01 T03620119  RH  024%=      5-min Rain = 0
KFVS 142230Z 20010G15KT 36/12 A2989 RMK A01 T03590122  RH  025%=      5-min Rain = 0
KFVS 142235Z 18009KT 35/13 A2989 RMK A01 T03530128  RH  027%=      5-min Rain = 0.01
KFVS 142240Z 16007KT 35/14 A2989 RMK A01 T03450143  RH  031%=      5-min Rain = 0
KFVS 142245Z 16007KT 35/14 A2989 RMK A01 T03470141  RH  030%=      5-min Rain = 0
KFVS 142250Z 16007KT 35/13 A299 RMK A01 T03520131  RH  028%=      5-min Rain = 0
KFVS 142255Z 14006KT 36/13 A299 RMK A01 T03550132  RH  027%=      5-min Rain = 0
KFVS 142300Z 11006KT 35/14 A299 RMK A01 T03540141  RH  029%=      5-min Rain = 0
KFVS 142305Z 12006KT 35/14 A299 RMK A01 T03520135  RH  028%=      5-min Rain = 0
KFVS 142310Z 10007KT 36/13 A299 RMK A01 T03560125  RH  026%=      5-min Rain = 0
KFVS 142315Z 09009G14KT 36/12 A299 RMK A01 T03550121  RH  025%=      5-min Rain = 0
KFVS 142320Z 08013KT 35/12 A299 RMK A01 T03500118  RH  026%=      5-min Rain = 0
KFVS 142325Z 08016G24KT 34/12 A299 RMK A01 T03440121  RH  027%=      5-min Rain = 0
KFVS 142330Z 08016G23KT 33/13 A299 RMK A01 T03340129  RH  030%=      5-min Rain = 0
KFVS 142335Z 09014G20KT 33/13 A2989 RMK A01 T03280129  RH  031%=      5-min Rain = 0
KFVS 142340Z 08014G19KT 34/12 A2989 RMK A01 T03350118  RH  028%=      5-min Rain = 0
KFVS 142345Z 09013G21KT 33/12 A2989 RMK A01 T03310123  RH  029%=      5-min Rain = 0
KFVS 142350Z 08012KT 33/13 A2989 RMK A01 T03270126  RH  031%=      5-min Rain = 0
KFVS 142355Z 07012KT 33/12 A2989 RMK A01 T03300120  RH  029%=      5-min Rain = 0
KFVS 150000Z 06012KT 33/13 A299 RMK A01 T03290125  RH  030%=      5-min Rain = 0
KFVS 150005Z 07015G21KT 33/12 A2989 RMK A01 T03250124  RH  031%=      5-min Rain = 0
KFVS 150010Z 05018G28KT 33/13 A2989 RMK A01 T03250131  RH  032%=      5-min Rain = 0
KFVS 150015Z 07009G14KT 33/13 A2989 RMK A01 T03310130  RH  031%=      5-min Rain = 0
KFVS 150020Z 08012G17KT 35/12 A2989 RMK A01 T03450121  RH  027%=      5-min Rain = 0
KFVS 150025Z 08010G15KT 35/12 A299 RMK A01 T03470118  RH  026%=      5-min Rain = 0
KFVS 150030Z 07010G15KT 34/12 A299 RMK A01 T03430121  RH  027%=      5-min Rain = 0
KFVS 150035Z 07009G14KT 34/12 A299 RMK A01 T03350122  RH  028%=      5-min Rain = 0
KFVS 150040Z 07009KT 34/12 A299 RMK A01 T03420116  RH  026%=      5-min Rain = 0
KFVS 150045Z 06008KT 34/12 A2991 RMK A01 T03360122  RH  028%=      5-min Rain = 0
KFVS 150050Z 07009KT 33/12 A2991 RMK A01 T03330120  RH  028%=      5-min Rain = 0
KFVS 150055Z 07009KT 33/12 A2991 RMK A01 T03340118  RH  028%=      5-min Rain = 0
KFVS 150100Z 03012KT 33/13 A2992 RMK A01 T03300125  RH  030%=      5-min Rain = 0.01
KFVS 150105Z 04009KT 33/12 A2992 RMK A01 T03300120  RH  029%=      5-min Rain = 0
KFVS 150110Z 04015G20KT 33/12 A2992 RMK A01 T03300118  RH  029%=      5-min Rain = 0
KFVS 150115Z 06015G21KT 34/11 A2993 RMK A01 T03380110  RH  026%=      5-min Rain = 0
KFVS 150120Z 04012KT 33/12 A2994 RMK A01 T03290120  RH  029%=      5-min Rain = 0
KFVS 150125Z 04012G18KT 32/13 A2994 RMK A01 T03210125  RH  031%=      5-min Rain = 0
KFVS 150130Z 05017G25KT 32/12 A2994 RMK A01 T03210120  RH  030%=      5-min Rain = 0
KFVS 150135Z 06015G22KT 32/12 A2995 RMK A01 T03170122  RH  032%=      5-min Rain = 0
KFVS 150140Z 05011KT 31/13 A2995 RMK A01 T03080128  RH  035%=      5-min Rain = 0
KFVS 150145Z 05012G18KT 30/13 A2996 RMK A01 T03040127  RH  035%=      5-min Rain = 0
KFVS 150150Z 06013G18KT 31/12 A2995 RMK A01 T03050123  RH  034%=      5-min Rain = 0
KFVS 150155Z 06013G19KT 30/12 A2995 RMK A01 T03040123  RH  034%=      5-min Rain = 0
KFVS 150200Z 06012G18KT 30/12 A2995 RMK A01 T03010124  RH  035%=      5-min Rain = 0
KFVS 150205Z 05012KT 30/12 A2995 RMK A01 T03020123  RH  035%=      5-min Rain = 0
KFVS 150210Z 04011KT 30/12 A2996 RMK A01 T03010123  RH  035%=      5-min Rain = 0
KFVS 150215Z 05010KT 30/12 A2996 RMK A01 T02990123  RH  035%=      5-min Rain = 0
KFVS 150220Z 06009KT 30/12 A2996 RMK A01 T02980123  RH  035%=      5-min Rain = 0
KFVS 150225Z 07009G15KT 30/12 A2996 RMK A01 T02990121  RH  035%=      5-min Rain = 0
KFVS 150230Z 07010KT 30/12 A2996 RMK A01 T02990121  RH  035%=      5-min Rain = 0
KFVS 150235Z 07011KT 30/12 A2996 RMK A01 T03000119  RH  034%=      5-min Rain = 0
KFVS 150240Z 07011KT 30/12 A2996 RMK A01 T03020117  RH  033%=      5-min Rain = 0
KFVS 150245Z 07012G17KT 31/12 A2996 RMK A01 T03050115  RH  032%=      5-min Rain = 0
KFVS 150250Z 07012KT 31/12 A2996 RMK A01 T03070116  RH  032%=      5-min Rain = 0
KFVS 150255Z 08011G17KT 31/12 A2997 RMK A01 T03060117  RH  032%=      5-min Rain = 0
KFVS 150300Z 08012KT 31/12 A2997 RMK A01 T03060117  RH  032%=      5-min Rain = 0
KFVS 150305Z 07011G16KT 31/12 A2997 RMK A01 T03080116  RH  032%=      5-min Rain = 0
KFVS 150310Z 07011G16KT 31/12 A2997 RMK A01 T03060117  RH  032%=      5-min Rain = 0
KFVS 150315Z 06012G18KT 31/12 A2998 RMK A01 T03070115  RH  032%=      5-min Rain = 0
KFVS 150320Z 04011KT 30/12 A2998 RMK A01 T03030120  RH  034%=      5-min Rain = 0
KFVS 150325Z 02011KT 30/12 A2998 RMK A01 T02970122  RH  035%=      5-min Rain = 0
KFVS 150330Z 03011KT 30/12 A2998 RMK A01 T02960122  RH  036%=      5-min Rain = 0
KFVS 150335Z 04010KT 30/12 A2998 RMK A01 T02950121  RH  035%=      5-min Rain = 0
KFVS 150340Z 04011G18KT 29/12 A2998 RMK A01 T02940121  RH  036%=      5-min Rain = 0
KFVS 150345Z 04012G17KT 30/12 A2998 RMK A01 T02950118  RH  035%=      5-min Rain = 0
KFVS 150350Z 05012KT 30/12 A2998 RMK A01 T02960116  RH  034%=      5-min Rain = 0
KFVS 150355Z 05013KT 30/12 A2998 RMK A01 T02980115  RH  033%=      5-min Rain = 0
KFVS 150400Z 04012KT 30/12 A2998 RMK A01 T02970115  RH  034%=      5-min Rain = 0
KFVS 150405Z 04010KT 29/12 A2998 RMK A01 T02930117  RH  035%=      5-min Rain = 0
KFVS 150410Z 05010KT 29/12 A2998 RMK A01 T02920116  RH  035%=      5-min Rain = 0
KFVS 150415Z 05009KT 29/12 A2998 RMK A01 T02920116  RH  035%=      5-min Rain = 0
KFVS 150420Z 05009KT 29/12 A2998 RMK A01 T02910115  RH  035%=      5-min Rain = 0
KFVS 150425Z 05009KT 29/12 A2997 RMK A01 T02920115  RH  035%=      5-min Rain = 0
KFVS 150430Z 05009KT 29/11 A2997 RMK A01 T02940114  RH  034%=      5-min Rain = 0
KFVS 150435Z 06009KT 29/11 A2997 RMK A01 T02940113  RH  034%=      5-min Rain = 0
KFVS 150440Z 07008KT 30/11 A2997 RMK A01 T02950114  RH  034%=      5-min Rain = 0
KFVS 150445Z 08008G13KT 30/11 A2997 RMK A01 T02950114  RH  034%=      5-min Rain = 0
KFVS 150450Z 09006KT 30/12 A2997 RMK A01 T02950116  RH  034%=      5-min Rain = 0
KFVS 150455Z 09006KT 29/12 A2997 RMK A01 T02920117  RH  035%=      5-min Rain = 0

Page generated in 0.0301 seconds.